Time;durP1;ratioP1;P1;durP2;ratioP2;P2;SDS_P1;SDS_P2;PMS_P1;PMS_P2;Temp;Humidity;BMP_temperature;BMP_pressure;BME280_temperature;BME280_humidity;BME280_pressure;Samples;Min_cycle;Max_cycle;Signal;HPM_P1;HPM_P2
2020/07/10 00:00:21;;;;;;;2.4;1.4;;;;;;;20.34;88.39844;956.5086;;;;
2020/07/10 00:02:46;;;;;;;4.9;1.4;;;;;;;;;;;;;
2020/07/10 00:05:11;;;;;;;5;1.5;;;;;;;;;;;;;
2020/07/10 00:07:37;;;;;;;3.9;1.5;;;;;;;;;;;;;
2020/07/10 00:10:02;;;;;;;3.4;1.5;;;;;;;;;;;;;
2020/07/10 00:12:27;;;;;;;4.2;1.5;;;;;;;;;;;;;
2020/07/10 00:14:52;;;;;;;2.7;1.4;;;;;;;;;;;;;
2020/07/10 00:17:17;;;;;;;3.8;1.7;;;;;;;;;;;;;
2020/07/10 00:19:42;;;;;;;4.6;1.9;;;;;;;;;;;;;
2020/07/10 00:22:08;;;;;;;4.2;1.5;;;;;;;;;;;;;
2020/07/10 00:24:33;;;;;;;3.9;1.4;;;;;;;;;;;;;
2020/07/10 00:26:58;;;;;;;3.8;1.3;;;;;;;;;;;;;
2020/07/10 00:29:23;;;;;;;5.8;1.3;;;;;;;;;;;;;
2020/07/10 00:31:48;;;;;;;4.7;1.4;;;;;;;;;;;;;
2020/07/10 00:34:13;;;;;;;4.7;1.4;;;;;;;;;;;;;
2020/07/10 00:36:38;;;;;;;6.1;1.4;;;;;;;;;;;;;
2020/07/10 00:39:05;;;;;;;3.4;1.2;;;;;;;;;;;;;
2020/07/10 00:41:29;;;;;;;4.6;1.3;;;;;;;;;;;;;
2020/07/10 00:43:54;;;;;;;4.7;1.3;;;;;;;;;;;;;
2020/07/10 00:51:09;;;;;;;4.8;1.4;;;;;;;;;;;;;
2020/07/10 00:53:34;;;;;;;5.6;1.4;;;;;;;;;;;;;
2020/07/10 00:56:00;;;;;;;4.8;1.2;;;;;;;;;;;;;
2020/07/10 00:58:25;;;;;;;4.3;1.2;;;;;;;;;;;;;
2020/07/10 01:00:50;;;;;;;3.6;1.3;;;;;;;;;;;;;
2020/07/10 01:03:15;;;;;;;3.8;1.3;;;;;;;;;;;;;
2020/07/10 01:05:43;;;;;;;5.1;1.3;;;;;;;;;;;;;
2020/07/10 01:08:08;;;;;;;4;1.3;;;;;;;;;;;;;
2020/07/10 01:10:33;;;;;;;5.5;1.3;;;;;;;;;;;;;
2020/07/10 01:12:58;;;;;;;4.8;1.5;;;;;;;;;;;;;
2020/07/10 01:15:23;;;;;;;3.5;1.2;;;;;;;;;;;;;
2020/07/10 01:17:48;;;;;;;3.5;1.3;;;;;;;;;;;;;
2020/07/10 01:20:14;;;;;;;4.8;1.3;;;;;;;;;;;;;
2020/07/10 01:22:39;;;;;;;4.7;1.4;;;;;;;;;;;;;
2020/07/10 01:26:34;;;;;;;3.9;1.2;;;;;;;;;;;;;
2020/07/10 01:28:59;;;;;;;4.7;1.4;;;;;;;;;;;;;
2020/07/10 01:31:25;;;;;;;4.8;1.4;;;;;;;;;;;;;
2020/07/10 01:33:50;;;;;;;4.1;1.7;;;;;;;;;;;;;
2020/07/10 01:36:15;;;;;;;5.8;1.7;;;;;;;;;;;;;
2020/07/10 01:38:40;;;;;;;3.3;1.5;;;;;;;;;;;;;
2020/07/10 01:41:54;;;;;;;3.6;1.4;;;;;;;;;;;;;
2020/07/10 01:43:30;;;;;;;5.5;1.7;;;;;;;;;;;;;
2020/07/10 01:45:55;;;;;;;4.5;1.4;;;;;;;;;;;;;
2020/07/10 01:48:20;;;;;;;3.7;1.4;;;;;;;;;;;;;
2020/07/10 01:50:45;;;;;;;4.5;1.5;;;;;;;;;;;;;
2020/07/10 01:53:10;;;;;;;4;1.2;;;;;;;;;;;;;
2020/07/10 01:55:35;;;;;;;2.9;1.2;;;;;;;;;;;;;
2020/07/10 01:58:02;;;;;;;8;1.7;;;;;;;;;;;;;
2020/07/10 02:00:27;;;;;;;6.8;1.4;;;;;;;;;;;;;
2020/07/10 02:02:52;;;;;;;3;1.3;;;;;;;;;;;;;
2020/07/10 02:05:18;;;;;;;4.4;1.4;;;;;;;;;;;;;
2020/07/10 02:07:43;;;;;;;3.3;1.7;;;;;;;;;;;;;
2020/07/10 02:12:36;;;;;;;3.1;1.3;;;;;;;;;;;;;
2020/07/10 02:15:01;;;;;;;3.7;1.3;;;;;;;;;;;;;
2020/07/10 02:17:26;;;;;;;3.3;1.1;;;;;;;;;;;;;
2020/07/10 02:19:51;;;;;;;4.1;1.3;;;;;;;;;;;;;
2020/07/10 02:22:51;;;;;;;4.1;1.3;;;;;;;;;;;;;
2020/07/10 02:25:25;;;;;;;6.7;1.5;;;;;;;;;;;;;
2020/07/10 02:27:58;;;;;;;5.1;1.4;;;;;;;;;;;;;
2020/07/10 02:30:34;;;;;;;4;1.3;;;;;;;;;;;;;
2020/07/10 02:32:59;;;;;;;4.3;1.6;;;;;;;;;;;;;
2020/07/10 02:35:24;;;;;;;5.7;1.4;;;;;;;;;;;;;
2020/07/10 02:37:50;;;;;;;4.8;1.3;;;;;;;;;;;;;
2020/07/10 02:40:15;;;;;;;4.2;1.2;;;;;;;;;;;;;
2020/07/10 02:42:40;;;;;;;4.6;1.3;;;;;;;;;;;;;
2020/07/10 02:45:05;;;;;;;3;1.3;;;;;;;;;;;;;
2020/07/10 02:47:30;;;;;;;3.7;1.4;;;;;;;;;;;;;
2020/07/10 02:49:55;;;;;;;3.3;1.2;;;;;;;;;;;;;
2020/07/10 02:52:21;;;;;;;3.3;1.2;;;;;;;;;;;;;
2020/07/10 02:54:47;;;;;;;3.7;1.3;;;;;;;;;;;;;
2020/07/10 02:57:12;;;;;;;3.5;1.3;;;;;;;;;;;;;
2020/07/10 02:59:38;;;;;;;4.8;1.5;;;;;;;;;;;;;
2020/07/10 03:02:03;;;;;;;2.8;1.3;;;;;;;;;;;;;
2020/07/10 03:04:28;;;;;;;4.7;1.4;;;;;;;;;;;;;
2020/07/10 03:06:54;;;;;;;5;1.4;;;;;;;;;;;;;
2020/07/10 03:09:19;;;;;;;4;1.5;;;;;;;;;;;;;
2020/07/10 03:11:50;;;;;;;7.6;2;;;;;;;;;;;;;
2020/07/10 03:14:20;;;;;;;4;1.4;;;;;;;;;;;;;
2020/07/10 03:16:51;;;;;;;3.8;1.5;;;;;;;;;;;;;
2020/07/10 03:19:17;;;;;;;4;1.5;;;;;;;;;;;;;
2020/07/10 03:21:43;;;;;;;4.9;1.4;;;;;;;;;;;;;
2020/07/10 03:24:13;;;;;;;4.2;1.5;;;;;;;;;;;;;
2020/07/10 03:26:42;;;;;;;3.4;1.4;;;;;;;;;;;;;
2020/07/10 03:29:09;;;;;;;4;1.2;;;;;;;;;;;;;
2020/07/10 03:31:34;;;;;;;5.2;1.5;;;;;;;;;;;;;
2020/07/10 03:34:04;;;;;;;3.4;1.7;;;;;;;;;;;;;
2020/07/10 03:36:31;;;;;;;3.7;1.4;;;;;;;;;;;;;
2020/07/10 03:38:56;;;;;;;4.1;1.3;;;;;;;;;;;;;
2020/07/10 03:41:27;;;;;;;4.8;1.4;;;;;;;;;;;;;
2020/07/10 03:43:55;;;;;;;4;1.2;;;;;;;;;;;;;
2020/07/10 03:46:20;;;;;;;3.8;1.3;;;;;;;;;;;;;
2020/07/10 03:48:50;;;;;;;5.6;1.5;;;;;;;;;;;;;
2020/07/10 03:51:17;;;;;;;3.8;1.5;;;;;;;;;;;;;
2020/07/10 03:53:42;;;;;;;5.9;1.5;;;;;;;;;;;;;
2020/07/10 03:56:07;;;;;;;6.2;1.8;;;;;;;;;;;;;
2020/07/10 03:58:52;;;;;;;5.3;1.6;;;;;;;;;;;;;
2020/07/10 04:02:30;;;;;;;5.9;1.4;;;;;;;18.15;100;955.6181;;;;
2020/07/10 04:04:59;;;;;;;4.8;1.5;;;;;;;18.13;100;955.5676;;;;
2020/07/10 04:07:23;;;;;;;3.6;1.4;;;;;;;18.19;100;955.5336;;;;
2020/07/10 04:09:51;;;;;;;6.5;1.4;;;;;;;18.24;100;955.5764;;;;
2020/07/10 04:12:16;;;;;;;5.8;1.3;;;;;;;18.31;100;955.5413;;;;
2020/07/10 04:14:43;;;;;;;6;1.3;;;;;;;18.3;100;955.5323;;;;
2020/07/10 04:17:13;;;;;;;4.5;1.6;;;;;;;18.3;100;955.5011;;;;
2020/07/10 04:19:39;;;;;;;6.7;1.5;;;;;;;18.3;100;955.5027;;;;
2020/07/10 04:22:12;;;;;;;5.5;1.5;;;;;;;18.17;100;955.4581;;;;
2020/07/10 04:24:38;;;;;;;4.7;1.3;;;;;;;18.21;100;955.4943;;;;
2020/07/10 04:27:02;;;;;;;3.5;1.4;;;;;;;18.37;100;955.4182;;;;
2020/07/10 04:29:27;;;;;;;7.4;1.6;;;;;;;18.34;100;955.4601;;;;
2020/07/10 04:31:57;;;;;;;5.7;1.3;;;;;;;18.24;100;955.4285;;;;
2020/07/10 04:34:22;;;;;;;5.6;1.5;;;;;;;18.3;100;955.4177;;;;
2020/07/10 04:36:52;;;;;;;3.8;1.3;;;;;;;18.38;100;955.4074;;;;
2020/07/10 04:39:30;;;;;;;4.2;1.3;;;;;;;18.37;100;955.4661;;;;
2020/07/10 04:41:47;;;;;;;3.6;1.2;;;;;;;18.44;99.81738;955.4475;;;;
2020/07/10 04:44:13;;;;;;;4.9;1.2;;;;;;;18.46;99.00391;955.4578;;;;
2020/07/10 04:46:44;;;;;;;6.9;1.3;;;;;;;18.59;96.71289;955.4405;;;;
2020/07/10 04:49:22;;;;;;;3.7;1.1;;;;;;;18.65;97.54688;955.4277;;;;
2020/07/10 04:51:56;;;;;;;5.6;1.5;;;;;;;18.67;98.52246;955.4391;;;;
2020/07/10 04:54:24;;;;;;;6.5;1.4;;;;;;;18.63;96.27344;955.4356;;;;
2020/07/10 04:57:01;;;;;;;4.5;1.2;;;;;;;18.75;100;955.4534;;;;
2020/07/10 04:59:26;;;;;;;4.4;1.5;;;;;;;18.83;98.30957;955.3265;;;;
2020/07/10 05:01:51;;;;;;;3.8;1.2;;;;;;;18.77;100;955.312;;;;
2020/07/10 05:04:16;;;;;;;4.9;1.7;;;;;;;18.76;96.62109;955.3303;;;;
2020/07/10 05:06:59;;;;;;;4.7;1.4;;;;;;;18.84;100;955.2906;;;;
2020/07/10 05:09:58;;;;;;;4.4;1.2;;;;;;;18.87;100;955.2759;;;;
2020/07/10 05:12:40;;;;;;;5.9;1;;;;;;;18.98;95.18945;955.2003;;;;
2020/07/10 05:15:09;;;;;;;5.3;1.3;;;;;;;19.1;95.81543;955.253;;;;
2020/07/10 05:17:52;;;;;;;3.9;1.1;;;;;;;19.14;96.90137;955.1917;;;;
2020/07/10 05:20:37;;;;;;;4.5;1.2;;;;;;;19.15;95.77832;955.1422;;;;
2020/07/10 05:23:04;;;;;;;5;1.3;;;;;;;19.22;93.49316;955.1462;;;;
2020/07/10 05:25:31;;;;;;;3.4;1.3;;;;;;;19.37;96.49414;955.1249;;;;
2020/07/10 05:28:17;;;;;;;4.1;1.2;;;;;;;19.42;90.79785;955.074;;;;
2020/07/10 05:30:47;;;;;;;7.3;1.3;;;;;;;19.47;95.01465;955.04;;;;
2020/07/10 05:33:33;;;;;;;5.2;1.3;;;;;;;19.53;90.51465;954.9872;;;;
2020/07/10 05:36:05;;;;;;;3;1.2;;;;;;;19.63;92.05078;954.9511;;;;
2020/07/10 05:38:30;;;;;;;5.8;1.3;;;;;;;19.65;89.09473;954.9749;;;;
2020/07/10 05:40:55;;;;;;;4.5;1.2;;;;;;;19.72;90.08301;954.9484;;;;
2020/07/10 05:43:21;;;;;;;5.6;1.2;;;;;;;19.81;91.16113;954.9403;;;;
2020/07/10 05:45:52;;;;;;;5;1.4;;;;;;;19.8;95.03711;954.9431;;;;
2020/07/10 05:48:17;;;;;;;5.4;1.4;;;;;;;19.81;90.63184;954.9528;;;;
2020/07/10 05:50:42;;;;;;;5.2;1.1;;;;;;;20.05;86.77539;954.9692;;;;
2020/07/10 05:53:21;;;;;;;3.9;1.2;;;;;;;20.1;85.51563;954.9528;;;;
2020/07/10 05:57:35;;;;;;;5.2;1.2;;;;;;;20.22;86.36328;954.8909;;;;
2020/07/10 06:00:20;;;;;;;3.1;0.9;;;;;;;20.39;83.0752;954.908;;;;
2020/07/10 06:02:45;;;;;;;5.6;1.3;;;;;;;20.46;84.36035;954.9666;;;;
2020/07/10 06:05:10;;;;;;;4.9;1.3;;;;;;;20.55;83.20996;954.9794;;;;
2020/07/10 06:07:36;;;;;;;4.8;1.1;;;;;;;20.61;85.89648;955.0181;;;;
2020/07/10 06:10:01;;;;;;;6;1.4;;;;;;;20.69;85.11133;955.0269;;;;
2020/07/10 06:12:26;;;;;;;6.8;1.3;;;;;;;20.8;84.14258;955.014;;;;
2020/07/10 06:14:51;;;;;;;7.9;1.6;;;;;;;20.86;84.0957;954.9905;;;;
2020/07/10 06:17:16;;;;;;;6.2;1.4;;;;;;;21.02;83.8418;955.0308;;;;
2020/07/10 06:19:41;;;;;;;7.5;1.2;;;;;;;21.14;81.57813;955.0106;;;;
2020/07/10 06:22:06;;;;;;;4.7;1.3;;;;;;;21.17;85.66406;955.0343;;;;
2020/07/10 06:24:31;;;;;;;6.3;1.3;;;;;;;21.46;79.28809;955.0153;;;;
2020/07/10 06:26:56;;;;;;;5;1.5;;;;;;;21.73;76.65723;955.0134;;;;
2020/07/10 06:29:21;;;;;;;4.8;1.1;;;;;;;21.73;77.03516;955.0441;;;;
2020/07/10 06:31:49;;;;;;;4.2;1.1;;;;;;;21.85;76.7959;954.9863;;;;
2020/07/10 06:34:14;;;;;;;6.7;1.7;;;;;;;21.85;78.07227;955.065;;;;
2020/07/10 06:36:54;;;;;;;5.6;1.6;;;;;;;21.98;79.60645;955.0341;;;;
2020/07/10 06:39:19;;;;;;;5.1;1.4;;;;;;;22.05;78.02441;955.0206;;;;
2020/07/10 06:41:44;;;;;;;5.5;1.7;;;;;;;22.08;78.41895;954.9763;;;;
2020/07/10 06:44:09;;;;;;;3.7;1.1;;;;;;;22.25;76.20215;955.0331;;;;
2020/07/10 06:46:34;;;;;;;5.9;1.6;;;;;;;22.68;72.50293;955.0853;;;;
2020/07/10 06:49:00;;;;;;;8.1;2.4;;;;;;;22.7;74.22168;955.0554;;;;
2020/07/10 06:51:25;;;;;;;5.6;1.3;;;;;;;23.04;68.44043;955.0063;;;;
2020/07/10 06:53:50;;;;;;;8;2.5;;;;;;;23.07;67.71191;955.0505;;;;
2020/07/10 06:56:15;;;;;;;5.9;1;;;;;;;23.15;67.03613;955.0867;;;;
2020/07/10 06:58:40;;;;;;;4.3;1.3;;;;;;;23.27;65.8584;955.1163;;;;
2020/07/10 07:01:05;;;;;;;2.1;1.1;;;;;;;23.51;65.52637;955.0853;;;;
2020/07/10 07:03:30;;;;;;;4.4;1.5;;;;;;;23.53;66.08691;955.1069;;;;
2020/07/10 07:05:55;;;;;;;3.8;1.4;;;;;;;23.51;65.80957;955.0912;;;;
2020/07/10 07:08:20;;;;;;;5.5;1.2;;;;;;;23.61;64.99414;955.1467;;;;
2020/07/10 07:10:58;;;;;;;4.6;1;;;;;;;23.84;63.76074;955.1484;;;;
2020/07/10 07:13:23;;;;;;;4.3;1;;;;;;;23.92;63.7959;955.0975;;;;
2020/07/10 07:15:49;;;;;;;5.3;1.1;;;;;;;24.06;63.83887;955.137;;;;
2020/07/10 07:18:15;;;;;;;4.9;1.1;;;;;;;24.01;63.61719;955.1383;;;;
2020/07/10 07:20:40;;;;;;;2.1;1;;;;;;;23.96;64.63184;955.1111;;;;
2020/07/10 07:23:05;;;;;;;4.4;1.2;;;;;;;24.12;64.4873;955.1903;;;;
2020/07/10 07:25:30;;;;;;;2.4;1.1;;;;;;;24.26;63.89063;955.1261;;;;
2020/07/10 07:27:55;;;;;;;6;1;;;;;;;24.46;63.89648;955.1628;;;;
2020/07/10 07:30:23;;;;;;;3.5;1.1;;;;;;;24.47;64.46777;955.1319;;;;
2020/07/10 07:32:48;;;;;;;5.2;1.1;;;;;;;24.57;63.8291;955.1873;;;;
2020/07/10 07:35:13;;;;;;;3.6;1.2;;;;;;;24.67;64.30664;955.1404;;;;
2020/07/10 07:37:38;;;;;;;5.1;1.3;;;;;;;24.92;63.20117;955.0778;;;;
2020/07/10 07:40:03;;;;;;;6;1.2;;;;;;;24.91;64.11621;955.1122;;;;
2020/07/10 07:42:29;;;;;;;2.8;1.2;;;;;;;25.02;63.96387;955.1208;;;;
2020/07/10 07:44:55;;;;;;;3.5;0.9;;;;;;;25.21;60.75488;955.0826;;;;
2020/07/10 07:47:20;;;;;;;4.4;0.9;;;;;;;25.34;60.46191;955.0817;;;;
2020/07/10 07:49:45;;;;;;;3.4;1.4;;;;;;;25.45;59.74121;955.1138;;;;
2020/07/10 07:52:10;;;;;;;3.4;1.6;;;;;;;25.79;55.65137;955.0929;;;;
2020/07/10 07:54:35;;;;;;;7.6;1.4;;;;;;;25.97;54.51758;955.1724;;;;
2020/07/10 07:57:00;;;;;;;3;0.8;;;;;;;26.06;52.10938;955.0991;;;;
2020/07/10 07:59:26;;;;;;;4.3;0.8;;;;;;;26.13;51.75879;955.0767;;;;
2020/07/10 08:01:51;;;;;;;2.3;1.1;;;;;;;26.18;52.34961;955.104;;;;
2020/07/10 08:04:16;;;;;;;3;0.8;;;;;;;26.3;52.86328;955.1476;;;;
2020/07/10 08:06:41;;;;;;;4.1;0.9;;;;;;;26.33;52.91504;955.1036;;;;
2020/07/10 08:09:06;;;;;;;2.6;0.8;;;;;;;26.48;52.5625;955.0877;;;;
2020/07/10 08:11:32;;;;;;;3.5;0.7;;;;;;;26.43;52.40137;955.1066;;;;
2020/07/10 08:13:57;;;;;;;2.8;0.9;;;;;;;26.49;51.30957;955.0269;;;;
2020/07/10 08:16:22;;;;;;;3.7;0.9;;;;;;;26.52;51.64941;955.0555;;;;
2020/07/10 08:18:47;;;;;;;3.2;0.9;;;;;;;26.69;51.10645;955.0756;;;;
2020/07/10 08:21:12;;;;;;;4.4;1;;;;;;;26.73;49.8584;955.0606;;;;
2020/07/10 08:23:37;;;;;;;3.8;1;;;;;;;26.66;49.27734;955.1408;;;;
2020/07/10 08:26:02;;;;;;;4;0.8;;;;;;;26.57;48.62402;955.098;;;;
2020/07/10 08:28:27;;;;;;;7.3;1.3;;;;;;;26.59;49.10254;955.0887;;;;
2020/07/10 08:30:52;;;;;;;2.5;0.8;;;;;;;26.6;48.66113;955.0492;;;;
2020/07/10 08:33:19;;;;;;;3.1;1;;;;;;;26.86;48.49805;955.0027;;;;
2020/07/10 08:35:45;;;;;;;3.5;0.7;;;;;;;26.8;47.96777;955.0444;;;;
2020/07/10 08:38:10;;;;;;;4.5;0.8;;;;;;;26.95;47.75684;955.048;;;;
2020/07/10 08:40:37;;;;;;;3.3;0.8;;;;;;;26.94;47.49219;955.0112;;;;
2020/07/10 08:43:02;;;;;;;4.4;0.8;;;;;;;26.85;47.78223;954.9495;;;;
2020/07/10 08:45:27;;;;;;;2.7;0.8;;;;;;;26.93;46.75;954.9744;;;;
2020/07/10 08:47:52;;;;;;;1.3;0.8;;;;;;;26.99;47.47363;955.0029;;;;
2020/07/10 08:50:17;;;;;;;3.9;0.9;;;;;;;27.05;46.39355;955.0632;;;;
2020/07/10 08:52:42;;;;;;;3.6;0.8;;;;;;;26.95;45.43848;955.0634;;;;
2020/07/10 08:55:08;;;;;;;3.1;0.9;;;;;;;27.09;45.25;955.085;;;;
2020/07/10 08:57:33;;;;;;;3.1;0.7;;;;;;;27.1;45.07129;955.0762;;;;
2020/07/10 08:59:58;;;;;;;2.2;1;;;;;;;27.25;44.72852;955.1229;;;;
2020/07/10 09:02:23;;;;;;;3.5;0.9;;;;;;;27.25;44.40527;955.0392;;;;
2020/07/10 09:04:48;;;;;;;3.4;0.8;;;;;;;27.21;44.82031;955.0901;;;;
2020/07/10 09:07:13;;;;;;;3.9;0.8;;;;;;;27.3;44.99609;955.0489;;;;
2020/07/10 09:09:38;;;;;;;4.2;0.9;;;;;;;27.56;44.74609;955.04;;;;
2020/07/10 09:12:03;;;;;;;3.1;1;;;;;;;27.37;45.27734;955.058;;;;
2020/07/10 09:14:28;;;;;;;2.2;0.9;;;;;;;27.38;45.70996;955.0439;;;;
2020/07/10 09:16:54;;;;;;;4.9;1.3;;;;;;;27.67;46.0498;955.063;;;;
2020/07/10 09:19:19;;;;;;;4;1.1;;;;;;;27.66;45.25977;955.0399;;;;
2020/07/10 09:21:44;;;;;;;5.8;1;;;;;;;27.77;44.74414;955.0803;;;;
2020/07/10 09:24:09;;;;;;;2;0.8;;;;;;;27.65;45.05566;955.0493;;;;
2020/07/10 09:26:34;;;;;;;4;0.9;;;;;;;27.62;45.44727;955.0524;;;;
2020/07/10 09:28:59;;;;;;;3.3;0.8;;;;;;;27.58;45.68164;954.9978;;;;
2020/07/10 09:31:25;;;;;;;3.9;1.1;;;;;;;27.67;45.42773;955.0201;;;;
2020/07/10 09:33:50;;;;;;;3.4;1;;;;;;;27.65;45.85645;954.997;;;;
2020/07/10 09:36:16;;;;;;;3.2;1.6;;;;;;;27.84;45.44531;955.0677;;;;
2020/07/10 09:38:41;;;;;;;4;1.8;;;;;;;27.72;45.14648;955.0349;;;;
2020/07/10 09:41:06;;;;;;;3.1;1.1;;;;;;;27.82;44.7959;955.0424;;;;
2020/07/10 09:43:31;;;;;;;5.5;1.3;;;;;;;27.81;45.26172;954.972;;;;
2020/07/10 09:45:56;;;;;;;2.8;0.8;;;;;;;27.72;44.70313;955.0006;;;;
2020/07/10 09:48:21;;;;;;;2.4;0.8;;;;;;;27.86;45.09961;955.024;;;;
2020/07/10 09:50:46;;;;;;;5.6;1.1;;;;;;;28.08;44.18848;955.0256;;;;
2020/07/10 09:53:11;;;;;;;3.9;1;;;;;;;27.97;44.57324;955.0011;;;;
2020/07/10 09:55:38;;;;;;;4.3;0.9;;;;;;;27.98;43.93848;954.9102;;;;
2020/07/10 09:58:03;;;;;;;2.7;0.8;;;;;;;27.88;44.03711;954.9584;;;;
2020/07/10 10:00:29;;;;;;;3.8;1;;;;;;;28.12;44.41895;954.8947;;;;
2020/07/10 10:02:54;;;;;;;3.9;1.2;;;;;;;28.18;44.2207;954.9102;;;;
2020/07/10 10:05:20;;;;;;;3.2;1;;;;;;;28.3;43.75488;954.8631;;;;
2020/07/10 10:07:45;;;;;;;4.2;0.9;;;;;;;28.6;42.74023;954.8677;;;;
2020/07/10 10:10:12;;;;;;;5;0.9;;;;;;;28.49;43.5332;954.9116;;;;
2020/07/10 10:12:37;;;;;;;4.2;0.8;;;;;;;28.63;42.98438;954.9409;;;;
2020/07/10 10:15:02;;;;;;;1.8;0.8;;;;;;;28.53;42.46973;954.8516;;;;
2020/07/10 10:17:27;;;;;;;2.9;1;;;;;;;28.42;43.26172;954.9018;;;;
2020/07/10 10:19:54;;;;;;;4.1;1.2;;;;;;;28.6;42.90723;954.9405;;;;
2020/07/10 10:22:19;;;;;;;4;1.2;;;;;;;28.68;43.27539;954.8602;;;;
2020/07/10 10:24:44;;;;;;;5.5;1.2;;;;;;;28.85;42.98047;954.8649;;;;
2020/07/10 10:27:09;;;;;;;4.4;1.2;;;;;;;28.76;42.2168;955.0154;;;;
2020/07/10 10:29:34;;;;;;;6.7;1.7;;;;;;;28.64;42.8877;954.9299;;;;
2020/07/10 10:31:59;;;;;;;2.7;1.2;;;;;;;28.58;43.13477;954.7873;;;;
2020/07/10 10:34:24;;;;;;;6;1.8;;;;;;;28.74;43.47266;954.7625;;;;
2020/07/10 10:36:50;;;;;;;2.9;0.9;;;;;;;28.71;43.35059;954.7997;;;;
2020/07/10 10:39:17;;;;;;;3.5;0.9;;;;;;;28.86;42.94434;954.7453;;;;
2020/07/10 10:41:48;;;;;;;2.6;0.8;;;;;;;28.96;43.25391;954.7584;;;;
2020/07/10 10:44:13;;;;;;;3.3;0.9;;;;;;;28.82;43.1582;954.8013;;;;
2020/07/10 10:46:38;;;;;;;4.2;1.2;;;;;;;28.85;42.72852;954.7927;;;;
2020/07/10 10:49:03;;;;;;;3.7;0.9;;;;;;;28.88;42.64746;954.7662;;;;
2020/07/10 10:51:31;;;;;;;3.3;0.8;;;;;;;28.81;43.02441;954.7473;;;;
2020/07/10 10:53:56;;;;;;;2.1;0.9;;;;;;;28.84;42.71582;954.7723;;;;
2020/07/10 10:56:21;;;;;;;4.9;1;;;;;;;28.99;42.95801;954.6614;;;;
2020/07/10 10:58:46;;;;;;;2.6;0.9;;;;;;;29.43;42.3623;954.7866;;;;
2020/07/10 11:01:11;;;;;;;3.7;0.9;;;;;;;29.23;42.72852;954.7489;;;;
2020/07/10 11:03:36;;;;;;;4.1;0.9;;;;;;;29.22;42.93164;954.7427;;;;
2020/07/10 11:06:01;;;;;;;5.7;1;;;;;;;29.37;42.64453;954.6729;;;;
2020/07/10 11:08:26;;;;;;;3.9;1;;;;;;;29.43;42.25391;954.6981;;;;
2020/07/10 11:10:51;;;;;;;3.1;0.8;;;;;;;29.42;43.03516;954.7086;;;;
2020/07/10 11:13:55;;;;;;;4.6;1;;;;;;;29.29;42.68652;954.6561;;;;
2020/07/10 11:15:48;;;;;;;4.7;1.2;;;;;;;29.41;42.46875;954.7255;;;;
2020/07/10 11:18:08;;;;;;;3.4;1.1;;;;;;;29.39;42.61133;954.7631;;;;
2020/07/10 11:20:34;;;;;;;3;1.1;;;;;;;29.4;42.45605;954.6514;;;;
2020/07/10 11:22:59;;;;;;;4.5;0.9;;;;;;;29.45;42.06445;954.6959;;;;
2020/07/10 11:25:25;;;;;;;2;1.1;;;;;;;29.58;42.31641;954.6967;;;;
2020/07/10 11:27:50;;;;;;;4.4;1;;;;;;;29.66;42.36035;954.6351;;;;
2020/07/10 11:30:21;;;;;;;3.8;1.2;;;;;;;29.83;42.52051;954.6356;;;;
2020/07/10 11:32:46;;;;;;;3;1;;;;;;;29.39;42.47949;954.5342;;;;
2020/07/10 11:35:12;;;;;;;4.7;1.3;;;;;;;29.88;42.05664;954.4808;;;;
2020/07/10 11:37:37;;;;;;;5.2;1;;;;;;;29.9;42.51465;954.5936;;;;
2020/07/10 11:40:02;;;;;;;4.6;1.1;;;;;;;30.31;44.63574;954.5076;;;;
2020/07/10 11:42:27;;;;;;;4.4;1.1;;;;;;;30.31;42.09668;954.4202;;;;
2020/07/10 11:44:52;;;;;;;5;1;;;;;;;30.39;41.73047;954.4753;;;;
2020/07/10 11:47:17;;;;;;;4.3;1.3;;;;;;;30.39;41.06836;954.476;;;;
2020/07/10 11:49:42;;;;;;;5.3;1.1;;;;;;;30.34;40.57031;954.4695;;;;
2020/07/10 11:52:07;;;;;;;11.2;1.4;;;;;;;30.45;40.55664;954.392;;;;
2020/07/10 11:54:32;;;;;;;3.1;1.1;;;;;;;30.12;40.85156;954.4243;;;;
2020/07/10 11:56:58;;;;;;;5.2;1.1;;;;;;;30.13;41.16504;954.3942;;;;
2020/07/10 11:59:23;;;;;;;2.8;1;;;;;;;30.32;40.79785;954.4648;;;;
2020/07/10 12:01:49;;;;;;;4.6;1.2;;;;;;;29.85;41.57227;954.4369;;;;
2020/07/10 12:04:14;;;;;;;4.7;1;;;;;;;29.99;41.6582;954.4497;;;;
2020/07/10 12:06:40;;;;;;;6.6;1.1;;;;;;;30;41.875;954.3638;;;;
2020/07/10 12:09:05;;;;;;;3.1;1.4;;;;;;;30.39;41.61035;954.3805;;;;
2020/07/10 12:11:33;;;;;;;4.8;1.2;;;;;;;30.58;40.74902;954.3484;;;;
2020/07/10 12:13:58;;;;;;;5.1;1.2;;;;;;;30.62;41.03027;954.3628;;;;
2020/07/10 12:16:23;;;;;;;5.3;1.3;;;;;;;30.75;40.88477;954.3555;;;;
2020/07/10 12:18:48;;;;;;;6.7;1.4;;;;;;;30.68;40.9502;954.2957;;;;
2020/07/10 12:21:13;;;;;;;3.7;1.1;;;;;;;30.75;40.93262;954.2579;;;;
2020/07/10 12:23:38;;;;;;;2.8;1.1;;;;;;;31;40.88281;954.2318;;;;
2020/07/10 12:26:03;;;;;;;4.5;1.1;;;;;;;30.86;41.01465;954.3373;;;;
2020/07/10 12:28:29;;;;;;;4.2;1.3;;;;;;;30.71;41.03711;954.3181;;;;
2020/07/10 12:30:54;;;;;;;3;1.2;;;;;;;31.11;40.25391;954.1858;;;;
2020/07/10 12:33:19;;;;;;;4.4;1.3;;;;;;;30.98;40.88184;954.2377;;;;
2020/07/10 12:35:44;;;;;;;3.8;1.4;;;;;;;30.73;40.79785;954.2231;;;;
2020/07/10 12:38:09;;;;;;;4.8;1.3;;;;;;;30.84;41.06055;954.1686;;;;
2020/07/10 12:40:35;;;;;;;5.9;1.2;;;;;;;30.71;41.32617;954.2352;;;;
2020/07/10 12:43:00;;;;;;;3.5;1.1;;;;;;;30.49;41.71582;954.2319;;;;
2020/07/10 12:45:26;;;;;;;5.3;1.3;;;;;;;30.77;41.27148;954.1967;;;;
2020/07/10 12:47:51;;;;;;;5.5;1.2;;;;;;;30.59;41.00293;954.204;;;;
2020/07/10 12:50:17;;;;;;;4.5;1.4;;;;;;;30.59;42.26758;954.2333;;;;
2020/07/10 12:52:42;;;;;;;5.8;1.2;;;;;;;30.89;40.95703;954.1197;;;;
2020/07/10 12:55:07;;;;;;;4.7;1.4;;;;;;;31.18;39.74121;954.1012;;;;
2020/07/10 12:57:33;;;;;;;6.5;1.2;;;;;;;31.24;40.08398;954.1142;;;;
2020/07/10 12:59:57;;;;;;;8;1.8;;;;;;;31.19;39.99609;954.2239;;;;
2020/07/10 13:02:23;;;;;;;4.6;1.4;;;;;;;31.36;39.70898;954.2432;;;;
2020/07/10 13:04:48;;;;;;;4.4;1.3;;;;;;;31.2;38.82715;954.1658;;;;
2020/07/10 13:08:14;;;;;;;6;1.8;;;;;;;31.04;39.36816;954.3328;;;;
2020/07/10 13:10:10;;;;;;;4.1;1.3;;;;;;;31.31;38.82422;954.2191;;;;
2020/07/10 13:12:05;;;;;;;5.7;1.2;;;;;;;31.33;39.58691;954.1858;;;;
2020/07/10 13:14:30;;;;;;;5.9;1.2;;;;;;;31.36;39.96191;954.2297;;;;
2020/07/10 13:16:55;;;;;;;5.5;1.4;;;;;;;31.05;39.21191;954.201;;;;
2020/07/10 13:19:20;;;;;;;6.2;1.4;;;;;;;31.28;39.46094;954.1378;;;;
2020/07/10 13:21:45;;;;;;;8.3;1.6;;;;;;;31.44;39.27051;954.197;;;;
2020/07/10 13:24:10;;;;;;;5.8;1.4;;;;;;;31.24;39.71094;954.1694;;;;
2020/07/10 13:26:35;;;;;;;7.3;1.5;;;;;;;31.34;40.25098;954.1741;;;;
2020/07/10 13:29:14;;;;;;;6.3;1.3;;;;;;;31.3;39.61914;954.1675;;;;
2020/07/10 13:31:25;;;;;;;6.4;1.6;;;;;;;31.48;39.98535;954.1808;;;;
2020/07/10 13:33:51;;;;;;;6.6;1.5;;;;;;;31.7;39.44922;954.1625;;;;
2020/07/10 13:36:16;;;;;;;4.7;1.3;;;;;;;31.7;39.84766;954.1901;;;;
2020/07/10 13:38:41;;;;;;;7.8;1.3;;;;;;;31.75;39.92383;954.1858;;;;
2020/07/10 13:41:06;;;;;;;4.5;1.3;;;;;;;32.02;40.06934;954.1575;;;;
2020/07/10 13:43:31;;;;;;;5.9;1.5;;;;;;;32.16;39.68262;954.182;;;;
2020/07/10 13:45:56;;;;;;;4.6;1.4;;;;;;;32.05;40.1084;954.1489;;;;
2020/07/10 13:48:21;;;;;;;6.9;1.7;;;;;;;31.87;40.22461;954.2416;;;;
2020/07/10 13:50:47;;;;;;;6.3;1.6;;;;;;;31.57;41.14063;954.3119;;;;
2020/07/10 13:53:12;;;;;;;6.8;1.3;;;;;;;31.38;41.50879;954.1364;;;;
2020/07/10 13:55:37;;;;;;;5.9;1.5;;;;;;;31.56;41.27148;954.2363;;;;
2020/07/10 13:58:02;;;;;;;6.5;1.5;;;;;;;31.26;40.4834;954.1665;;;;
2020/07/10 14:00:27;;;;;;;8.9;1.4;;;;;;;31.61;40.16602;954.1395;;;;
2020/07/10 14:02:53;;;;;;;4.4;1.2;;;;;;;31.58;40.24707;954.0653;;;;
2020/07/10 14:05:18;;;;;;;6.8;1.2;;;;;;;31.35;40.77051;954.134;;;;
2020/07/10 14:07:44;;;;;;;4.5;1.2;;;;;;;31.45;40.86426;954.1024;;;;
2020/07/10 14:10:09;;;;;;;4.2;1.2;;;;;;;31.34;40.55176;953.9931;;;;
2020/07/10 14:12:34;;;;;;;3.5;1.3;;;;;;;31.39;40.59277;953.9855;;;;
2020/07/10 14:14:59;;;;;;;7;1.3;;;;;;;31.6;39.80176;953.8442;;;;
2020/07/10 14:17:24;;;;;;;6.4;1.3;;;;;;;31.58;39.87305;953.8748;;;;
2020/07/10 14:19:49;;;;;;;6.3;1.3;;;;;;;31.44;40.4043;953.8741;;;;
2020/07/10 14:22:14;;;;;;;4.9;1.2;;;;;;;31.48;40.87793;953.9354;;;;
2020/07/10 14:24:40;;;;;;;7.5;1.4;;;;;;;31.14;40.55762;953.8979;;;;
2020/07/10 14:27:05;;;;;;;6.2;1.3;;;;;;;31.01;40.04004;953.8954;;;;
2020/07/10 14:29:31;;;;;;;4.5;1.3;;;;;;;31.2;39.69531;953.8856;;;;
2020/07/10 14:31:57;;;;;;;4.7;1.3;;;;;;;31.22;39.44336;953.9724;;;;
2020/07/10 14:34:22;;;;;;;5;1.3;;;;;;;31.25;39.89258;953.8215;;;;
2020/07/10 14:36:47;;;;;;;5.7;1.3;;;;;;;31.41;39.65332;953.7999;;;;
2020/07/10 14:39:13;;;;;;;5.4;1.3;;;;;;;31.21;38.9834;953.8109;;;;
2020/07/10 14:41:38;;;;;;;6.6;1.5;;;;;;;31.05;38.34375;953.8446;;;;
2020/07/10 14:44:03;;;;;;;7.1;1.4;;;;;;;31.02;38.29297;953.7643;;;;
2020/07/10 14:46:28;;;;;;;6.2;1.6;;;;;;;31.13;38.79785;953.8203;;;;
2020/07/10 14:49:02;;;;;;;6.9;1.5;;;;;;;31.05;39.16406;953.949;;;;
2020/07/10 14:51:18;;;;;;;5.1;1.4;;;;;;;30.75;39.89746;953.9583;;;;
2020/07/10 14:53:43;;;;;;;7.9;1.5;;;;;;;30.6;40.31738;953.875;;;;
2020/07/10 14:56:08;;;;;;;7.2;1.8;;;;;;;30.72;40.23145;953.957;;;;
2020/07/10 14:58:33;;;;;;;6.1;1.5;;;;;;;30.66;40.41895;953.9467;;;;
2020/07/10 15:00:58;;;;;;;9.6;1.8;;;;;;;30.62;40.04199;953.9509;;;;
2020/07/10 15:03:23;;;;;;;6.6;1.6;;;;;;;30.4;40.28711;953.9674;;;;
2020/07/10 15:05:49;;;;;;;7.4;1.4;;;;;;;30.29;40.3252;954.0625;;;;
2020/07/10 15:08:14;;;;;;;6.5;1.6;;;;;;;30.33;40.02832;954.1538;;;;
2020/07/10 15:10:39;;;;;;;6.1;1.7;;;;;;;30.05;40.06348;954.1463;;;;
2020/07/10 15:13:05;;;;;;;4.5;1.5;;;;;;;30.26;40.35938;954.2194;;;;
2020/07/10 15:15:30;;;;;;;7.4;1.6;;;;;;;30.27;40.58789;954.3441;;;;
2020/07/10 15:17:55;;;;;;;6.2;1.5;;;;;;;30.18;40.55664;954.2785;;;;
2020/07/10 15:20:20;;;;;;;6.4;1.4;;;;;;;30.03;41.51758;954.3543;;;;
2020/07/10 15:22:45;;;;;;;6.4;1.6;;;;;;;29.84;42.4375;954.4319;;;;
2020/07/10 15:25:11;;;;;;;6.7;1.7;;;;;;;29.67;42.72266;954.4542;;;;
2020/07/10 15:27:36;;;;;;;7.5;1.2;;;;;;;29.31;43.31348;954.5349;;;;
2020/07/10 15:30:01;;;;;;;7.4;2.5;;;;;;;29.61;43.40039;954.5204;;;;
2020/07/10 15:32:26;;;;;;;4.3;1.3;;;;;;;29.54;43.18945;954.5544;;;;
2020/07/10 15:34:51;;;;;;;5.8;1.4;;;;;;;29.09;44.94727;954.5901;;;;
2020/07/10 15:37:16;;;;;;;6;1.5;;;;;;;29.19;45.46191;954.592;;;;
2020/07/10 15:39:41;;;;;;;5.1;1.1;;;;;;;29.27;45.51758;954.767;;;;
2020/07/10 15:42:06;;;;;;;6.1;1.4;;;;;;;29.07;46.49316;954.7996;;;;
2020/07/10 15:44:31;;;;;;;7;1.2;;;;;;;28.9;46.54785;954.8259;;;;